sensor_id;sensor_type;location;lat;lon;timestamp;P1;durP1;ratioP1;P2;durP2;ratioP2
4391;SDS011;2210;51.938;8.488;2024-01-30T00:01:41;6.13;;;4.07;;
4391;SDS011;2210;51.938;8.488;2024-01-30T00:05:48;5.00;;;4.20;;
4391;SDS011;2210;51.938;8.488;2024-01-30T00:09:48;5.63;;;4.63;;
4391;SDS011;2210;51.938;8.488;2024-01-30T00:13:52;6.35;;;4.38;;
4391;SDS011;2210;51.938;8.488;2024-01-30T00:17:55;4.70;;;4.30;;
4391;SDS011;2210;51.938;8.488;2024-01-30T00:21:55;4.90;;;4.37;;
4391;SDS011;2210;51.938;8.488;2024-01-30T00:25:58;4.73;;;4.17;;
4391;SDS011;2210;51.938;8.488;2024-01-30T00:29:59;4.13;;;3.77;;
4391;SDS011;2210;51.938;8.488;2024-01-30T00:33:59;4.00;;;2.93;;
4391;SDS011;2210;51.938;8.488;2024-01-30T00:37:59;5.78;;;4.63;;
4391;SDS011;2210;51.938;8.488;2024-01-30T00:42:09;3.70;;;3.30;;
4391;SDS011;2210;51.938;8.488;2024-01-30T00:46:09;6.13;;;4.00;;
4391;SDS011;2210;51.938;8.488;2024-01-30T00:50:09;5.20;;;4.50;;
4391;SDS011;2210;51.938;8.488;2024-01-30T00:54:10;5.23;;;4.73;;
4391;SDS011;2210;51.938;8.488;2024-01-30T00:58:10;5.23;;;3.90;;
4391;SDS011;2210;51.938;8.488;2024-01-30T01:02:10;5.18;;;4.65;;
4391;SDS011;2210;51.938;8.488;2024-01-30T01:06:13;5.10;;;4.60;;
4391;SDS011;2210;51.938;8.488;2024-01-30T01:10:14;6.33;;;4.20;;
4391;SDS011;2210;51.938;8.488;2024-01-30T01:14:19;4.70;;;4.20;;
4391;SDS011;2210;51.938;8.488;2024-01-30T01:18:22;8.13;;;4.00;;
4391;SDS011;2210;51.938;8.488;2024-01-30T01:22:25;4.27;;;3.73;;
4391;SDS011;2210;51.938;8.488;2024-01-30T01:26:28;4.47;;;3.93;;
4391;SDS011;2210;51.938;8.488;2024-01-30T01:30:29;4.57;;;4.07;;
4391;SDS011;2210;51.938;8.488;2024-01-30T01:34:33;9.70;;;4.53;;
4391;SDS011;2210;51.938;8.488;2024-01-30T01:38:39;4.30;;;3.90;;
4391;SDS011;2210;51.938;8.488;2024-01-30T01:42:40;5.10;;;4.00;;
4391;SDS011;2210;51.938;8.488;2024-01-30T01:46:40;6.57;;;4.85;;
4391;SDS011;2210;51.938;8.488;2024-01-30T01:50:41;5.20;;;4.10;;
4391;SDS011;2210;51.938;8.488;2024-01-30T01:54:43;4.30;;;3.70;;
4391;SDS011;2210;51.938;8.488;2024-01-30T01:58:43;4.13;;;3.83;;
4391;SDS011;2210;51.938;8.488;2024-01-30T02:02:47;5.47;;;4.00;;
4391;SDS011;2210;51.938;8.488;2024-01-30T02:06:49;6.77;;;4.77;;
4391;SDS011;2210;51.938;8.488;2024-01-30T02:10:49;6.00;;;5.10;;
4391;SDS011;2210;51.938;8.488;2024-01-30T02:14:50;4.10;;;3.70;;
4391;SDS011;2210;51.938;8.488;2024-01-30T02:18:50;5.00;;;4.17;;
4391;SDS011;2210;51.938;8.488;2024-01-30T02:22:51;4.97;;;4.38;;
4391;SDS011;2210;51.938;8.488;2024-01-30T02:26:54;7.10;;;4.20;;
4391;SDS011;2210;51.938;8.488;2024-01-30T02:30:57;4.88;;;4.20;;
4391;SDS011;2210;51.938;8.488;2024-01-30T02:34:57;4.10;;;3.70;;
4391;SDS011;2210;51.938;8.488;2024-01-30T02:38:58;5.60;;;4.27;;
4391;SDS011;2210;51.938;8.488;2024-01-30T02:42:59;5.15;;;3.83;;
4391;SDS011;2210;51.938;8.488;2024-01-30T02:47:03;9.97;;;4.30;;
4391;SDS011;2210;51.938;8.488;2024-01-30T02:51:06;5.23;;;3.80;;
4391;SDS011;2210;51.938;8.488;2024-01-30T02:55:12;5.80;;;4.50;;
4391;SDS011;2210;51.938;8.488;2024-01-30T02:59:16;7.27;;;4.80;;
4391;SDS011;2210;51.938;8.488;2024-01-30T03:03:16;5.33;;;4.83;;
4391;SDS011;2210;51.938;8.488;2024-01-30T03:07:16;6.07;;;4.35;;
4391;SDS011;2210;51.938;8.488;2024-01-30T03:11:17;5.70;;;4.63;;
4391;SDS011;2210;51.938;8.488;2024-01-30T03:15:17;7.43;;;4.82;;
4391;SDS011;2210;51.938;8.488;2024-01-30T03:19:17;5.60;;;4.10;;
4391;SDS011;2210;51.938;8.488;2024-01-30T03:23:18;6.20;;;4.80;;
4391;SDS011;2210;51.938;8.488;2024-01-30T03:27:21;5.30;;;4.80;;
4391;SDS011;2210;51.938;8.488;2024-01-30T03:31:24;6.90;;;5.37;;
4391;SDS011;2210;51.938;8.488;2024-01-30T03:35:25;5.73;;;5.07;;
4391;SDS011;2210;51.938;8.488;2024-01-30T03:39:31;5.70;;;5.10;;
4391;SDS011;2210;51.938;8.488;2024-01-30T03:43:34;7.70;;;4.93;;
4391;SDS011;2210;51.938;8.488;2024-01-30T03:47:34;6.97;;;5.57;;
4391;SDS011;2210;51.938;8.488;2024-01-30T03:51:37;4.95;;;4.45;;
4391;SDS011;2210;51.938;8.488;2024-01-30T03:55:38;5.00;;;4.60;;
4391;SDS011;2210;51.938;8.488;2024-01-30T03:59:38;6.63;;;5.10;;
4391;SDS011;2210;51.938;8.488;2024-01-30T04:03:41;5.90;;;4.20;;
4391;SDS011;2210;51.938;8.488;2024-01-30T04:07:47;5.63;;;5.07;;
4391;SDS011;2210;51.938;8.488;2024-01-30T04:11:54;7.13;;;4.70;;
4391;SDS011;2210;51.938;8.488;2024-01-30T04:15:54;6.23;;;4.17;;
4391;SDS011;2210;51.938;8.488;2024-01-30T04:19:55;4.73;;;4.27;;
4391;SDS011;2210;51.938;8.488;2024-01-30T04:23:58;6.07;;;5.03;;
4391;SDS011;2210;51.938;8.488;2024-01-30T04:27:58;7.07;;;5.13;;
4391;SDS011;2210;51.938;8.488;2024-01-30T04:31:59;9.93;;;5.10;;
4391;SDS011;2210;51.938;8.488;2024-01-30T04:35:59;6.80;;;4.63;;
4391;SDS011;2210;51.938;8.488;2024-01-30T04:40:00;4.73;;;4.23;;
4391;SDS011;2210;51.938;8.488;2024-01-30T04:44:03;5.30;;;4.53;;
4391;SDS011;2210;51.938;8.488;2024-01-30T04:48:07;5.10;;;4.60;;
4391;SDS011;2210;51.938;8.488;2024-01-30T04:52:08;5.07;;;4.40;;
4391;SDS011;2210;51.938;8.488;2024-01-30T04:56:12;5.60;;;5.10;;
4391;SDS011;2210;51.938;8.488;2024-01-30T05:00:12;5.90;;;4.27;;
4391;SDS011;2210;51.938;8.488;2024-01-30T05:04:12;8.17;;;5.67;;
4391;SDS011;2210;51.938;8.488;2024-01-30T05:08:13;5.30;;;4.60;;
4391;SDS011;2210;51.938;8.488;2024-01-30T05:12:13;5.23;;;4.67;;
4391;SDS011;2210;51.938;8.488;2024-01-30T05:16:14;10.50;;;5.03;;
4391;SDS011;2210;51.938;8.488;2024-01-30T05:20:14;5.77;;;5.17;;
4391;SDS011;2210;51.938;8.488;2024-01-30T05:24:14;7.72;;;5.30;;
4391;SDS011;2210;51.938;8.488;2024-01-30T05:28:14;5.27;;;4.20;;
4391;SDS011;2210;51.938;8.488;2024-01-30T05:32:15;5.40;;;4.85;;
4391;SDS011;2210;51.938;8.488;2024-01-30T05:36:18;8.57;;;6.27;;
4391;SDS011;2210;51.938;8.488;2024-01-30T05:40:18;6.23;;;5.63;;
4391;SDS011;2210;51.938;8.488;2024-01-30T05:44:18;8.70;;;6.00;;
4391;SDS011;2210;51.938;8.488;2024-01-30T05:48:19;6.53;;;4.80;;
4391;SDS011;2210;51.938;8.488;2024-01-30T05:52:19;7.43;;;5.97;;
4391;SDS011;2210;51.938;8.488;2024-01-30T05:56:20;12.20;;;6.70;;
4391;SDS011;2210;51.938;8.488;2024-01-30T06:00:20;5.93;;;5.13;;
4391;SDS011;2210;51.938;8.488;2024-01-30T06:04:20;5.90;;;4.30;;
4391;SDS011;2210;51.938;8.488;2024-01-30T06:08:20;5.70;;;5.10;;
4391;SDS011;2210;51.938;8.488;2024-01-30T06:12:21;6.70;;;5.68;;
4391;SDS011;2210;51.938;8.488;2024-01-30T06:16:21;5.95;;;4.43;;
4391;SDS011;2210;51.938;8.488;2024-01-30T06:20:22;8.40;;;5.67;;
4391;SDS011;2210;51.938;8.488;2024-01-30T06:24:34;5.25;;;4.75;;
4391;SDS011;2210;51.938;8.488;2024-01-30T06:28:38;7.90;;;6.00;;
4391;SDS011;2210;51.938;8.488;2024-01-30T06:32:38;5.20;;;4.37;;
4391;SDS011;2210;51.938;8.488;2024-01-30T06:36:38;5.55;;;4.70;;
4391;SDS011;2210;51.938;8.488;2024-01-30T06:40:38;6.10;;;4.83;;
4391;SDS011;2210;51.938;8.488;2024-01-30T06:44:39;4.97;;;4.47;;
4391;SDS011;2210;51.938;8.488;2024-01-30T06:48:39;7.90;;;4.83;;
4391;SDS011;2210;51.938;8.488;2024-01-30T06:52:40;7.20;;;4.60;;
4391;SDS011;2210;51.938;8.488;2024-01-30T06:56:43;5.30;;;4.40;;
4391;SDS011;2210;51.938;8.488;2024-01-30T07:00:44;5.17;;;4.50;;
4391;SDS011;2210;51.938;8.488;2024-01-30T07:04:44;8.90;;;4.17;;
4391;SDS011;2210;51.938;8.488;2024-01-30T07:08:44;5.73;;;4.13;;
4391;SDS011;2210;51.938;8.488;2024-01-30T07:12:44;5.20;;;4.10;;
4391;SDS011;2210;51.938;8.488;2024-01-30T07:16:45;4.32;;;3.92;;
4391;SDS011;2210;51.938;8.488;2024-01-30T07:20:48;5.20;;;4.40;;
4391;SDS011;2210;51.938;8.488;2024-01-30T07:24:52;5.07;;;4.20;;
4391;SDS011;2210;51.938;8.488;2024-01-30T07:28:52;5.43;;;4.63;;
4391;SDS011;2210;51.938;8.488;2024-01-30T07:32:53;5.63;;;4.60;;
4391;SDS011;2210;51.938;8.488;2024-01-30T07:36:53;7.90;;;4.45;;
4391;SDS011;2210;51.938;8.488;2024-01-30T07:40:59;5.53;;;4.35;;
4391;SDS011;2210;51.938;8.488;2024-01-30T07:45:05;4.67;;;4.07;;
4391;SDS011;2210;51.938;8.488;2024-01-30T07:49:12;5.30;;;3.93;;
4391;SDS011;2210;51.938;8.488;2024-01-30T07:53:14;8.70;;;5.23;;
4391;SDS011;2210;51.938;8.488;2024-01-30T07:57:14;4.37;;;3.97;;
4391;SDS011;2210;51.938;8.488;2024-01-30T08:01:15;5.20;;;4.07;;
4391;SDS011;2210;51.938;8.488;2024-01-30T08:05:16;4.63;;;4.13;;
4391;SDS011;2210;51.938;8.488;2024-01-30T08:09:16;4.80;;;3.77;;
4391;SDS011;2210;51.938;8.488;2024-01-30T08:13:16;4.90;;;4.00;;
4391;SDS011;2210;51.938;8.488;2024-01-30T08:17:16;6.90;;;5.23;;
4391;SDS011;2210;51.938;8.488;2024-01-30T08:21:17;6.80;;;4.57;;
4391;SDS011;2210;51.938;8.488;2024-01-30T08:25:17;5.10;;;3.90;;
4391;SDS011;2210;51.938;8.488;2024-01-30T08:29:17;4.20;;;3.80;;
4391;SDS011;2210;51.938;8.488;2024-01-30T08:33:17;5.10;;;3.70;;
4391;SDS011;2210;51.938;8.488;2024-01-30T08:37:18;5.07;;;4.23;;
4391;SDS011;2210;51.938;8.488;2024-01-30T08:41:18;4.23;;;3.83;;
4391;SDS011;2210;51.938;8.488;2024-01-30T08:45:25;5.80;;;4.30;;
4391;SDS011;2210;51.938;8.488;2024-01-30T08:49:25;4.67;;;4.17;;
4391;SDS011;2210;51.938;8.488;2024-01-30T08:53:25;5.67;;;4.23;;
4391;SDS011;2210;51.938;8.488;2024-01-30T08:57:25;4.72;;;4.22;;
4391;SDS011;2210;51.938;8.488;2024-01-30T09:01:28;4.43;;;4.03;;
4391;SDS011;2210;51.938;8.488;2024-01-30T09:05:28;5.70;;;3.77;;
4391;SDS011;2210;51.938;8.488;2024-01-30T09:09:32;5.60;;;3.90;;
4391;SDS011;2210;51.938;8.488;2024-01-30T09:13:32;4.43;;;4.03;;
4391;SDS011;2210;51.938;8.488;2024-01-30T09:17:35;4.13;;;3.72;;
4391;SDS011;2210;51.938;8.488;2024-01-30T09:21:35;7.30;;;4.27;;
4391;SDS011;2210;51.938;8.488;2024-01-30T09:25:36;4.13;;;3.73;;
4391;SDS011;2210;51.938;8.488;2024-01-30T09:29:36;7.50;;;3.43;;
4391;SDS011;2210;51.938;8.488;2024-01-30T09:33:36;4.40;;;4.00;;
4391;SDS011;2210;51.938;8.488;2024-01-30T09:37:37;4.30;;;3.87;;
4391;SDS011;2210;51.938;8.488;2024-01-30T09:41:41;5.10;;;3.58;;
4391;SDS011;2210;51.938;8.488;2024-01-30T09:46:02;6.43;;;3.67;;
4391;SDS011;2210;51.938;8.488;2024-01-30T09:50:03;5.23;;;4.00;;
4391;SDS011;2210;51.938;8.488;2024-01-30T09:54:07;3.37;;;3.07;;
4391;SDS011;2210;51.938;8.488;2024-01-30T09:58:12;4.63;;;4.10;;
4391;SDS011;2210;51.938;8.488;2024-01-30T10:02:16;3.63;;;3.33;;
4391;SDS011;2210;51.938;8.488;2024-01-30T10:06:18;5.00;;;3.90;;
4391;SDS011;2210;51.938;8.488;2024-01-30T10:10:23;4.37;;;3.50;;
4391;SDS011;2210;51.938;8.488;2024-01-30T10:14:24;4.70;;;3.50;;
4391;SDS011;2210;51.938;8.488;2024-01-30T10:18:25;4.47;;;3.70;;
4391;SDS011;2210;51.938;8.488;2024-01-30T10:22:25;5.30;;;3.60;;
4391;SDS011;2210;51.938;8.488;2024-01-30T10:26:26;3.77;;;3.43;;
4391;SDS011;2210;51.938;8.488;2024-01-30T10:30:26;4.18;;;3.78;;
4391;SDS011;2210;51.938;8.488;2024-01-30T10:34:27;6.80;;;3.90;;
4391;SDS011;2210;51.938;8.488;2024-01-30T10:38:28;4.17;;;3.73;;
4391;SDS011;2210;51.938;8.488;2024-01-30T10:42:31;4.00;;;3.63;;
4391;SDS011;2210;51.938;8.488;2024-01-30T10:46:32;6.80;;;4.60;;
4391;SDS011;2210;51.938;8.488;2024-01-30T10:50:33;9.97;;;4.73;;
4391;SDS011;2210;51.938;8.488;2024-01-30T10:54:35;7.47;;;3.67;;
4391;SDS011;2210;51.938;8.488;2024-01-30T10:58:37;5.23;;;4.27;;
4391;SDS011;2210;51.938;8.488;2024-01-30T11:02:41;4.10;;;3.70;;
4391;SDS011;2210;51.938;8.488;2024-01-30T11:06:42;3.93;;;3.60;;
4391;SDS011;2210;51.938;8.488;2024-01-30T11:10:46;6.63;;;4.10;;
4391;SDS011;2210;51.938;8.488;2024-01-30T11:14:47;5.13;;;4.43;;
4391;SDS011;2210;51.938;8.488;2024-01-30T11:18:50;5.70;;;4.43;;
4391;SDS011;2210;51.938;8.488;2024-01-30T11:22:54;7.40;;;4.97;;
4391;SDS011;2210;51.938;8.488;2024-01-30T11:26:56;5.53;;;4.00;;
4391;SDS011;2210;51.938;8.488;2024-01-30T11:31:04;4.80;;;3.77;;
4391;SDS011;2210;51.938;8.488;2024-01-30T11:35:06;4.93;;;4.03;;
4391;SDS011;2210;51.938;8.488;2024-01-30T11:39:11;5.20;;;3.90;;
4391;SDS011;2210;51.938;8.488;2024-01-30T11:43:12;5.90;;;4.20;;
4391;SDS011;2210;51.938;8.488;2024-01-30T11:47:13;4.23;;;3.73;;
4391;SDS011;2210;51.938;8.488;2024-01-30T11:51:14;6.50;;;3.63;;
4391;SDS011;2210;51.938;8.488;2024-01-30T11:55:15;4.20;;;3.13;;
4391;SDS011;2210;51.938;8.488;2024-01-30T11:59:15;4.23;;;3.60;;
4391;SDS011;2210;51.938;8.488;2024-01-30T12:03:15;6.95;;;3.72;;
4391;SDS011;2210;51.938;8.488;2024-01-30T12:07:15;4.80;;;3.90;;
4391;SDS011;2210;51.938;8.488;2024-01-30T12:11:16;4.00;;;3.17;;
4391;SDS011;2210;51.938;8.488;2024-01-30T12:15:17;5.33;;;3.20;;
4391;SDS011;2210;51.938;8.488;2024-01-30T12:19:24;5.93;;;3.20;;
4391;SDS011;2210;51.938;8.488;2024-01-30T12:23:26;4.30;;;3.60;;
4391;SDS011;2210;51.938;8.488;2024-01-30T12:27:27;3.27;;;2.87;;
4391;SDS011;2210;51.938;8.488;2024-01-30T12:31:28;3.70;;;3.40;;
4391;SDS011;2210;51.938;8.488;2024-01-30T12:35:28;4.20;;;3.30;;
4391;SDS011;2210;51.938;8.488;2024-01-30T12:39:32;6.50;;;4.20;;
4391;SDS011;2210;51.938;8.488;2024-01-30T12:43:32;3.90;;;2.93;;
4391;SDS011;2210;51.938;8.488;2024-01-30T12:47:32;3.37;;;3.07;;
4391;SDS011;2210;51.938;8.488;2024-01-30T12:51:36;9.50;;;3.77;;
4391;SDS011;2210;51.938;8.488;2024-01-30T12:55:36;3.83;;;3.43;;
4391;SDS011;2210;51.938;8.488;2024-01-30T12:59:36;3.77;;;3.30;;
4391;SDS011;2210;51.938;8.488;2024-01-30T13:03:37;5.13;;;4.37;;
4391;SDS011;2210;51.938;8.488;2024-01-30T13:07:40;5.77;;;3.50;;
4391;SDS011;2210;51.938;8.488;2024-01-30T13:11:40;4.63;;;4.13;;
4391;SDS011;2210;51.938;8.488;2024-01-30T13:15:41;5.40;;;3.90;;
4391;SDS011;2210;51.938;8.488;2024-01-30T13:19:41;8.23;;;5.67;;
4391;SDS011;2210;51.938;8.488;2024-01-30T13:23:41;7.85;;;5.68;;
4391;SDS011;2210;51.938;8.488;2024-01-30T13:27:42;7.40;;;5.10;;
4391;SDS011;2210;51.938;8.488;2024-01-30T13:31:42;5.43;;;4.13;;
4391;SDS011;2210;51.938;8.488;2024-01-30T13:35:44;6.30;;;4.30;;
4391;SDS011;2210;51.938;8.488;2024-01-30T13:39:44;6.37;;;4.50;;
4391;SDS011;2210;51.938;8.488;2024-01-30T13:43:44;4.20;;;3.80;;
4391;SDS011;2210;51.938;8.488;2024-01-30T13:47:45;10.10;;;7.55;;
4391;SDS011;2210;51.938;8.488;2024-01-30T13:51:45;14.48;;;10.10;;
4391;SDS011;2210;51.938;8.488;2024-01-30T13:55:45;8.68;;;6.50;;
4391;SDS011;2210;51.938;8.488;2024-01-30T13:59:45;6.97;;;4.30;;
4391;SDS011;2210;51.938;8.488;2024-01-30T14:03:46;9.27;;;4.87;;
4391;SDS011;2210;51.938;8.488;2024-01-30T14:07:46;9.00;;;4.70;;
4391;SDS011;2210;51.938;8.488;2024-01-30T14:11:47;8.97;;;4.97;;
4391;SDS011;2210;51.938;8.488;2024-01-30T14:15:47;7.80;;;5.20;;
4391;SDS011;2210;51.938;8.488;2024-01-30T14:19:48;12.43;;;5.97;;
4391;SDS011;2210;51.938;8.488;2024-01-30T14:23:48;7.03;;;3.80;;
4391;SDS011;2210;51.938;8.488;2024-01-30T14:27:48;7.03;;;4.07;;
4391;SDS011;2210;51.938;8.488;2024-01-30T14:31:48;5.57;;;4.40;;
4391;SDS011;2210;51.938;8.488;2024-01-30T14:35:49;9.43;;;4.97;;
4391;SDS011;2210;51.938;8.488;2024-01-30T14:39:49;8.10;;;4.53;;
4391;SDS011;2210;51.938;8.488;2024-01-30T14:43:50;6.10;;;4.47;;
4391;SDS011;2210;51.938;8.488;2024-01-30T14:47:50;13.60;;;5.00;;
4391;SDS011;2210;51.938;8.488;2024-01-30T14:51:50;8.73;;;5.10;;
4391;SDS011;2210;51.938;8.488;2024-01-30T14:55:50;6.43;;;4.70;;
4391;SDS011;2210;51.938;8.488;2024-01-30T14:59:51;9.07;;;5.00;;
4391;SDS011;2210;51.938;8.488;2024-01-30T15:03:51;9.70;;;6.30;;
4391;SDS011;2210;51.938;8.488;2024-01-30T15:07:52;4.57;;;4.10;;
4391;SDS011;2210;51.938;8.488;2024-01-30T15:11:52;6.33;;;4.50;;
4391;SDS011;2210;51.938;8.488;2024-01-30T15:15:52;6.00;;;4.70;;
4391;SDS011;2210;51.938;8.488;2024-01-30T15:19:52;4.13;;;3.73;;
4391;SDS011;2210;51.938;8.488;2024-01-30T15:23:53;5.13;;;4.13;;
4391;SDS011;2210;51.938;8.488;2024-01-30T15:27:53;6.53;;;4.22;;
4391;SDS011;2210;51.938;8.488;2024-01-30T15:31:53;7.93;;;4.10;;
4391;SDS011;2210;51.938;8.488;2024-01-30T15:35:53;6.55;;;4.75;;
4391;SDS011;2210;51.938;8.488;2024-01-30T15:39:54;7.43;;;5.10;;
4391;SDS011;2210;51.938;8.488;2024-01-30T15:43:54;6.07;;;4.90;;
4391;SDS011;2210;51.938;8.488;2024-01-30T15:47:54;9.68;;;6.45;;
4391;SDS011;2210;51.938;8.488;2024-01-30T15:51:55;8.40;;;6.70;;
4391;SDS011;2210;51.938;8.488;2024-01-30T15:55:55;7.43;;;4.65;;
4391;SDS011;2210;51.938;8.488;2024-01-30T15:59:55;7.47;;;4.47;;
4391;SDS011;2210;51.938;8.488;2024-01-30T16:03:55;7.63;;;4.43;;
4391;SDS011;2210;51.938;8.488;2024-01-30T16:07:56;5.03;;;4.50;;
4391;SDS011;2210;51.938;8.488;2024-01-30T16:11:56;9.63;;;4.80;;
4391;SDS011;2210;51.938;8.488;2024-01-30T16:15:56;4.68;;;4.15;;
4391;SDS011;2210;51.938;8.488;2024-01-30T16:19:57;9.13;;;4.75;;
4391;SDS011;2210;51.938;8.488;2024-01-30T16:23:57;5.73;;;4.90;;
4391;SDS011;2210;51.938;8.488;2024-01-30T16:27:57;6.50;;;4.60;;
4391;SDS011;2210;51.938;8.488;2024-01-30T16:31:57;4.33;;;3.93;;
4391;SDS011;2210;51.938;8.488;2024-01-30T16:35:58;5.90;;;4.20;;
4391;SDS011;2210;51.938;8.488;2024-01-30T16:39:58;5.10;;;4.00;;
4391;SDS011;2210;51.938;8.488;2024-01-30T16:43:58;5.10;;;4.00;;
4391;SDS011;2210;51.938;8.488;2024-01-30T16:47:59;9.40;;;4.67;;
4391;SDS011;2210;51.938;8.488;2024-01-30T16:51:59;6.10;;;4.85;;
4391;SDS011;2210;51.938;8.488;2024-01-30T16:55:59;4.75;;;4.20;;
4391;SDS011;2210;51.938;8.488;2024-01-30T16:59:59;4.93;;;3.80;;
4391;SDS011;2210;51.938;8.488;2024-01-30T17:04:00;5.73;;;4.17;;
4391;SDS011;2210;51.938;8.488;2024-01-30T17:08:00;6.80;;;4.43;;
4391;SDS011;2210;51.938;8.488;2024-01-30T17:12:00;10.77;;;4.10;;
4391;SDS011;2210;51.938;8.488;2024-01-30T17:16:03;5.77;;;4.43;;
4391;SDS011;2210;51.938;8.488;2024-01-30T17:20:06;4.10;;;3.70;;
4391;SDS011;2210;51.938;8.488;2024-01-30T17:24:07;7.67;;;4.50;;
4391;SDS011;2210;51.938;8.488;2024-01-30T17:28:08;6.57;;;4.47;;
4391;SDS011;2210;51.938;8.488;2024-01-30T17:32:09;5.27;;;4.50;;
4391;SDS011;2210;51.938;8.488;2024-01-30T17:36:13;3.80;;;3.27;;
4391;SDS011;2210;51.938;8.488;2024-01-30T17:40:13;3.20;;;2.03;;
4391;SDS011;2210;51.938;8.488;2024-01-30T17:44:14;3.60;;;2.27;;
4391;SDS011;2210;51.938;8.488;2024-01-30T17:48:14;5.03;;;2.37;;
4391;SDS011;2210;51.938;8.488;2024-01-30T17:52:14;3.53;;;2.47;;
4391;SDS011;2210;51.938;8.488;2024-01-30T17:56:17;5.73;;;2.00;;
4391;SDS011;2210;51.938;8.488;2024-01-30T18:00:18;3.17;;;2.20;;
4391;SDS011;2210;51.938;8.488;2024-01-30T18:04:25;1.63;;;1.50;;
4391;SDS011;2210;51.938;8.488;2024-01-30T18:08:25;1.93;;;1.77;;
4391;SDS011;2210;51.938;8.488;2024-01-30T18:12:26;3.80;;;1.63;;
4391;SDS011;2210;51.938;8.488;2024-01-30T18:16:26;3.20;;;1.77;;
4391;SDS011;2210;51.938;8.488;2024-01-30T18:20:26;1.60;;;1.40;;
4391;SDS011;2210;51.938;8.488;2024-01-30T18:24:26;1.55;;;1.45;;
4391;SDS011;2210;51.938;8.488;2024-01-30T18:28:27;2.80;;;1.13;;
4391;SDS011;2210;51.938;8.488;2024-01-30T18:32:27;2.27;;;1.30;;
4391;SDS011;2210;51.938;8.488;2024-01-30T18:36:27;4.20;;;1.10;;
4391;SDS011;2210;51.938;8.488;2024-01-30T18:40:28;4.03;;;1.48;;
4391;SDS011;2210;51.938;8.488;2024-01-30T18:44:28;1.50;;;1.40;;
4391;SDS011;2210;51.938;8.488;2024-01-30T18:48:31;1.60;;;1.50;;
4391;SDS011;2210;51.938;8.488;2024-01-30T18:52:31;3.10;;;1.50;;
4391;SDS011;2210;51.938;8.488;2024-01-30T18:56:34;3.80;;;1.70;;
4391;SDS011;2210;51.938;8.488;2024-01-30T19:00:35;3.50;;;1.40;;
4391;SDS011;2210;51.938;8.488;2024-01-30T19:04:40;2.57;;;1.70;;
4391;SDS011;2210;51.938;8.488;2024-01-30T19:08:40;4.70;;;1.60;;
4391;SDS011;2210;51.938;8.488;2024-01-30T19:12:41;1.27;;;1.17;;
4391;SDS011;2210;51.938;8.488;2024-01-30T19:16:42;1.20;;;1.10;;
4391;SDS011;2210;51.938;8.488;2024-01-30T19:20:43;1.80;;;1.00;;
4391;SDS011;2210;51.938;8.488;2024-01-30T19:24:43;2.83;;;1.70;;
4391;SDS011;2210;51.938;8.488;2024-01-30T19:28:43;1.13;;;1.02;;
4391;SDS011;2210;51.938;8.488;2024-01-30T19:32:46;3.40;;;1.90;;
4391;SDS011;2210;51.938;8.488;2024-01-30T19:36:46;3.22;;;2.72;;
4391;SDS011;2210;51.938;8.488;2024-01-30T19:40:47;4.32;;;2.75;;
4391;SDS011;2210;51.938;8.488;2024-01-30T19:44:47;5.00;;;2.43;;
4391;SDS011;2210;51.938;8.488;2024-01-30T19:48:47;2.93;;;2.63;;
4391;SDS011;2210;51.938;8.488;2024-01-30T19:52:48;4.50;;;3.05;;
4391;SDS011;2210;51.938;8.488;2024-01-30T19:56:48;4.13;;;3.60;;
4391;SDS011;2210;51.938;8.488;2024-01-30T20:00:48;2.60;;;2.40;;
4391;SDS011;2210;51.938;8.488;2024-01-30T20:04:50;3.23;;;2.70;;
4391;SDS011;2210;51.938;8.488;2024-01-30T20:08:56;3.33;;;3.03;;
4391;SDS011;2210;51.938;8.488;2024-01-30T20:12:56;6.77;;;2.97;;
4391;SDS011;2210;51.938;8.488;2024-01-30T20:16:57;5.85;;;4.28;;
4391;SDS011;2210;51.938;8.488;2024-01-30T20:21:03;5.43;;;3.70;;
4391;SDS011;2210;51.938;8.488;2024-01-30T20:25:04;5.30;;;3.87;;
4391;SDS011;2210;51.938;8.488;2024-01-30T20:29:08;4.33;;;3.93;;
4391;SDS011;2210;51.938;8.488;2024-01-30T20:33:09;4.00;;;3.60;;
4391;SDS011;2210;51.938;8.488;2024-01-30T20:37:14;5.40;;;3.90;;
4391;SDS011;2210;51.938;8.488;2024-01-30T20:41:14;5.70;;;4.70;;
4391;SDS011;2210;51.938;8.488;2024-01-30T20:45:14;5.00;;;3.87;;
4391;SDS011;2210;51.938;8.488;2024-01-30T20:49:15;5.43;;;4.50;;
4391;SDS011;2210;51.938;8.488;2024-01-30T20:53:15;5.17;;;4.57;;
4391;SDS011;2210;51.938;8.488;2024-01-30T20:57:15;4.97;;;4.20;;
4391;SDS011;2210;51.938;8.488;2024-01-30T21:01:16;4.53;;;4.07;;
4391;SDS011;2210;51.938;8.488;2024-01-30T21:05:16;4.27;;;3.80;;
4391;SDS011;2210;51.938;8.488;2024-01-30T21:09:22;5.83;;;3.90;;
4391;SDS011;2210;51.938;8.488;2024-01-30T21:13:22;4.97;;;4.00;;
4391;SDS011;2210;51.938;8.488;2024-01-30T21:17:22;5.20;;;4.20;;
4391;SDS011;2210;51.938;8.488;2024-01-30T21:21:29;5.68;;;4.78;;
4391;SDS011;2210;51.938;8.488;2024-01-30T21:25:32;5.10;;;4.30;;
4391;SDS011;2210;51.938;8.488;2024-01-30T21:29:32;7.33;;;5.10;;
4391;SDS011;2210;51.938;8.488;2024-01-30T21:33:35;5.90;;;4.95;;
4391;SDS011;2210;51.938;8.488;2024-01-30T21:37:36;7.50;;;5.23;;
4391;SDS011;2210;51.938;8.488;2024-01-30T21:41:39;8.63;;;5.90;;
4391;SDS011;2210;51.938;8.488;2024-01-30T21:45:43;7.83;;;5.70;;
4391;SDS011;2210;51.938;8.488;2024-01-30T21:49:43;8.00;;;5.03;;
4391;SDS011;2210;51.938;8.488;2024-01-30T21:53:43;9.45;;;5.70;;
4391;SDS011;2210;51.938;8.488;2024-01-30T21:57:47;7.67;;;5.63;;
4391;SDS011;2210;51.938;8.488;2024-01-30T22:01:47;7.43;;;5.70;;
4391;SDS011;2210;51.938;8.488;2024-01-30T22:05:50;8.73;;;6.40;;
4391;SDS011;2210;51.938;8.488;2024-01-30T22:09:51;7.90;;;5.60;;
4391;SDS011;2210;51.938;8.488;2024-01-30T22:13:51;6.70;;;5.07;;
4391;SDS011;2210;51.938;8.488;2024-01-30T22:17:51;8.00;;;6.10;;
4391;SDS011;2210;51.938;8.488;2024-01-30T22:21:51;8.90;;;6.50;;
4391;SDS011;2210;51.938;8.488;2024-01-30T22:25:52;7.77;;;6.47;;
4391;SDS011;2210;51.938;8.488;2024-01-30T22:29:52;7.78;;;6.03;;
4391;SDS011;2210;51.938;8.488;2024-01-30T22:33:58;8.82;;;7.00;;
4391;SDS011;2210;51.938;8.488;2024-01-30T22:37:59;7.70;;;5.80;;
4391;SDS011;2210;51.938;8.488;2024-01-30T22:41:59;7.47;;;6.10;;
4391;SDS011;2210;51.938;8.488;2024-01-30T22:45:59;6.20;;;4.57;;
4391;SDS011;2210;51.938;8.488;2024-01-30T22:49:59;4.90;;;3.90;;
4391;SDS011;2210;51.938;8.488;2024-01-30T22:54:00;6.80;;;4.13;;
4391;SDS011;2210;51.938;8.488;2024-01-30T22:58:00;5.30;;;3.88;;
4391;SDS011;2210;51.938;8.488;2024-01-30T23:02:00;3.60;;;3.30;;
4391;SDS011;2210;51.938;8.488;2024-01-30T23:06:11;5.77;;;3.10;;
4391;SDS011;2210;51.938;8.488;2024-01-30T23:10:11;4.67;;;4.17;;
4391;SDS011;2210;51.938;8.488;2024-01-30T23:14:18;4.40;;;3.70;;
4391;SDS011;2210;51.938;8.488;2024-01-30T23:18:19;4.37;;;3.97;;
4391;SDS011;2210;51.938;8.488;2024-01-30T23:22:19;3.63;;;2.93;;
4391;SDS011;2210;51.938;8.488;2024-01-30T23:26:19;3.60;;;3.00;;
4391;SDS011;2210;51.938;8.488;2024-01-30T23:30:19;3.27;;;3.03;;
4391;SDS011;2210;51.938;8.488;2024-01-30T23:34:20;4.13;;;3.40;;
4391;SDS011;2210;51.938;8.488;2024-01-30T23:38:20;7.17;;;3.03;;
4391;SDS011;2210;51.938;8.488;2024-01-30T23:42:20;3.13;;;2.83;;
4391;SDS011;2210;51.938;8.488;2024-01-30T23:46:20;3.55;;;3.10;;
4391;SDS011;2210;51.938;8.488;2024-01-30T23:50:21;4.17;;;3.00;;
4391;SDS011;2210;51.938;8.488;2024-01-30T23:54:21;3.88;;;2.33;;
4391;SDS011;2210;51.938;8.488;2024-01-30T23:58:24;3.67;;;2.78;;
